sensor_id;sensor_type;location;lat;lon;timestamp;P1;durP1;ratioP1;P2;durP2;ratioP2
59008;SDS011;44794;42.652;23.318;2023-03-14T00:00:03;38.65;;;17.77;;
59008;SDS011;44794;42.652;23.318;2023-03-14T00:02:36;36.33;;;17.80;;
59008;SDS011;44794;42.652;23.318;2023-03-14T00:05:02;36.33;;;18.73;;
59008;SDS011;44794;42.652;23.318;2023-03-14T00:07:32;33.92;;;17.25;;
59008;SDS011;44794;42.652;23.318;2023-03-14T00:10:00;36.60;;;18.38;;
59008;SDS011;44794;42.652;23.318;2023-03-14T00:12:27;35.00;;;17.08;;
59008;SDS011;44794;42.652;23.318;2023-03-14T00:14:52;28.38;;;14.70;;
59008;SDS011;44794;42.652;23.318;2023-03-14T00:17:18;26.05;;;14.80;;
59008;SDS011;44794;42.652;23.318;2023-03-14T00:19:43;32.67;;;15.43;;
59008;SDS011;44794;42.652;23.318;2023-03-14T00:22:08;29.70;;;15.18;;
59008;SDS011;44794;42.652;23.318;2023-03-14T00:24:34;27.58;;;14.40;;
59008;SDS011;44794;42.652;23.318;2023-03-14T00:26:59;31.83;;;14.88;;
59008;SDS011;44794;42.652;23.318;2023-03-14T00:29:25;28.63;;;15.52;;
59008;SDS011;44794;42.652;23.318;2023-03-14T00:31:50;36.10;;;16.40;;
59008;SDS011;44794;42.652;23.318;2023-03-14T00:34:15;32.22;;;16.58;;
59008;SDS011;44794;42.652;23.318;2023-03-14T00:36:41;32.25;;;15.88;;
59008;SDS011;44794;42.652;23.318;2023-03-14T00:39:06;34.50;;;16.95;;
59008;SDS011;44794;42.652;23.318;2023-03-14T00:41:32;30.73;;;16.08;;
59008;SDS011;44794;42.652;23.318;2023-03-14T00:43:57;33.83;;;16.73;;
59008;SDS011;44794;42.652;23.318;2023-03-14T00:46:23;35.30;;;16.55;;
59008;SDS011;44794;42.652;23.318;2023-03-14T00:48:48;33.85;;;16.42;;
59008;SDS011;44794;42.652;23.318;2023-03-14T00:51:14;33.15;;;15.70;;
59008;SDS011;44794;42.652;23.318;2023-03-14T00:53:40;32.00;;;16.10;;
59008;SDS011;44794;42.652;23.318;2023-03-14T00:56:06;42.33;;;20.63;;
59008;SDS011;44794;42.652;23.318;2023-03-14T00:58:34;30.45;;;16.52;;
59008;SDS011;44794;42.652;23.318;2023-03-14T01:01:04;30.95;;;16.63;;
59008;SDS011;44794;42.652;23.318;2023-03-14T01:03:31;28.42;;;15.93;;
59008;SDS011;44794;42.652;23.318;2023-03-14T01:06:06;33.33;;;16.88;;
59008;SDS011;44794;42.652;23.318;2023-03-14T01:08:39;34.40;;;17.50;;
59008;SDS011;44794;42.652;23.318;2023-03-14T01:11:06;34.78;;;16.67;;
59008;SDS011;44794;42.652;23.318;2023-03-14T01:13:33;31.75;;;17.08;;
59008;SDS011;44794;42.652;23.318;2023-03-14T01:16:05;44.15;;;21.02;;
59008;SDS011;44794;42.652;23.318;2023-03-14T01:18:32;55.72;;;24.27;;
59008;SDS011;44794;42.652;23.318;2023-03-14T01:21:00;44.92;;;20.50;;
59008;SDS011;44794;42.652;23.318;2023-03-14T01:23:26;38.97;;;18.77;;
59008;SDS011;44794;42.652;23.318;2023-03-14T01:25:51;42.80;;;20.25;;
59008;SDS011;44794;42.652;23.318;2023-03-14T01:28:16;37.67;;;19.23;;
59008;SDS011;44794;42.652;23.318;2023-03-14T01:30:42;38.92;;;18.50;;
59008;SDS011;44794;42.652;23.318;2023-03-14T01:33:07;36.55;;;18.27;;
59008;SDS011;44794;42.652;23.318;2023-03-14T01:35:33;34.35;;;18.35;;
59008;SDS011;44794;42.652;23.318;2023-03-14T01:37:58;38.20;;;17.98;;
59008;SDS011;44794;42.652;23.318;2023-03-14T01:40:23;32.70;;;18.00;;
59008;SDS011;44794;42.652;23.318;2023-03-14T01:42:56;34.25;;;17.45;;
59008;SDS011;44794;42.652;23.318;2023-03-14T01:48:25;32.88;;;17.38;;
59008;SDS011;44794;42.652;23.318;2023-03-14T01:50:53;37.80;;;17.48;;
59008;SDS011;44794;42.652;23.318;2023-03-14T01:53:19;36.22;;;18.20;;
59008;SDS011;44794;42.652;23.318;2023-03-14T01:55:49;40.72;;;20.55;;
59008;SDS011;44794;42.652;23.318;2023-03-14T01:58:17;41.15;;;20.13;;
59008;SDS011;44794;42.652;23.318;2023-03-14T02:00:45;41.28;;;19.08;;
59008;SDS011;44794;42.652;23.318;2023-03-14T02:03:11;45.67;;;20.52;;
59008;SDS011;44794;42.652;23.318;2023-03-14T02:05:41;43.63;;;21.13;;
59008;SDS011;44794;42.652;23.318;2023-03-14T02:08:12;40.95;;;19.63;;
59008;SDS011;44794;42.652;23.318;2023-03-14T02:10:44;40.90;;;19.50;;
59008;SDS011;44794;42.652;23.318;2023-03-14T02:13:11;43.17;;;19.17;;
59008;SDS011;44794;42.652;23.318;2023-03-14T02:15:39;41.97;;;19.90;;
59008;SDS011;44794;42.652;23.318;2023-03-14T02:18:05;38.13;;;19.02;;
59008;SDS011;44794;42.652;23.318;2023-03-14T02:20:41;33.88;;;17.92;;
59008;SDS011;44794;42.652;23.318;2023-03-14T02:23:14;32.17;;;16.90;;
59008;SDS011;44794;42.652;23.318;2023-03-14T02:28:47;34.67;;;16.90;;
59008;SDS011;44794;42.652;23.318;2023-03-14T02:31:13;34.90;;;16.50;;
59008;SDS011;44794;42.652;23.318;2023-03-14T02:33:39;33.88;;;16.48;;
59008;SDS011;44794;42.652;23.318;2023-03-14T02:36:05;40.03;;;20.65;;
59008;SDS011;44794;42.652;23.318;2023-03-14T02:41:26;38.45;;;17.77;;
59008;SDS011;44794;42.652;23.318;2023-03-14T02:43:51;30.15;;;15.65;;
59008;SDS011;44794;42.652;23.318;2023-03-14T02:46:17;31.73;;;14.73;;
59008;SDS011;44794;42.652;23.318;2023-03-14T02:48:51;34.17;;;17.02;;
59008;SDS011;44794;42.652;23.318;2023-03-14T02:51:21;29.83;;;15.45;;
59008;SDS011;44794;42.652;23.318;2023-03-14T02:53:48;29.05;;;15.13;;
59008;SDS011;44794;42.652;23.318;2023-03-14T02:56:14;28.58;;;12.77;;
59008;SDS011;44794;42.652;23.318;2023-03-14T02:58:39;26.42;;;13.98;;
59008;SDS011;44794;42.652;23.318;2023-03-14T03:01:04;28.27;;;14.32;;
59008;SDS011;44794;42.652;23.318;2023-03-14T03:03:30;26.20;;;14.93;;
59008;SDS011;44794;42.652;23.318;2023-03-14T03:05:56;33.53;;;15.13;;
59008;SDS011;44794;42.652;23.318;2023-03-14T03:08:23;36.70;;;17.05;;
59008;SDS011;44794;42.652;23.318;2023-03-14T03:10:51;33.28;;;17.48;;
59008;SDS011;44794;42.652;23.318;2023-03-14T03:13:16;34.15;;;17.20;;
59008;SDS011;44794;42.652;23.318;2023-03-14T03:15:42;33.55;;;16.33;;
59008;SDS011;44794;42.652;23.318;2023-03-14T03:18:08;31.65;;;15.60;;
59008;SDS011;44794;42.652;23.318;2023-03-14T03:20:34;31.10;;;16.25;;
59008;SDS011;44794;42.652;23.318;2023-03-14T03:22:59;30.25;;;16.20;;
59008;SDS011;44794;42.652;23.318;2023-03-14T03:25:25;32.60;;;16.05;;
59008;SDS011;44794;42.652;23.318;2023-03-14T03:27:51;27.90;;;15.07;;
59008;SDS011;44794;42.652;23.318;2023-03-14T03:30:16;27.23;;;15.00;;
59008;SDS011;44794;42.652;23.318;2023-03-14T03:32:42;31.45;;;15.85;;
59008;SDS011;44794;42.652;23.318;2023-03-14T03:35:08;30.48;;;16.15;;
59008;SDS011;44794;42.652;23.318;2023-03-14T03:37:34;35.75;;;16.25;;
59008;SDS011;44794;42.652;23.318;2023-03-14T03:40:00;32.63;;;16.27;;
59008;SDS011;44794;42.652;23.318;2023-03-14T03:42:28;27.85;;;15.63;;
59008;SDS011;44794;42.652;23.318;2023-03-14T03:44:53;33.45;;;16.05;;
59008;SDS011;44794;42.652;23.318;2023-03-14T03:47:19;31.63;;;16.00;;
59008;SDS011;44794;42.652;23.318;2023-03-14T03:49:44;29.20;;;15.63;;
59008;SDS011;44794;42.652;23.318;2023-03-14T03:52:10;31.48;;;16.33;;
59008;SDS011;44794;42.652;23.318;2023-03-14T03:54:35;30.42;;;15.13;;
59008;SDS011;44794;42.652;23.318;2023-03-14T03:57:01;29.75;;;15.32;;
59008;SDS011;44794;42.652;23.318;2023-03-14T03:59:26;31.50;;;16.92;;
59008;SDS011;44794;42.652;23.318;2023-03-14T04:01:52;36.20;;;16.75;;
59008;SDS011;44794;42.652;23.318;2023-03-14T04:04:17;32.00;;;17.30;;
59008;SDS011;44794;42.652;23.318;2023-03-14T04:06:43;32.47;;;16.60;;
59008;SDS011;44794;42.652;23.318;2023-03-14T04:09:09;29.33;;;16.52;;
59008;SDS011;44794;42.652;23.318;2023-03-14T04:11:35;29.83;;;16.52;;
59008;SDS011;44794;42.652;23.318;2023-03-14T04:14:01;33.92;;;16.60;;
59008;SDS011;44794;42.652;23.318;2023-03-14T04:16:27;33.80;;;17.77;;
59008;SDS011;44794;42.652;23.318;2023-03-14T04:18:52;35.20;;;17.27;;
59008;SDS011;44794;42.652;23.318;2023-03-14T04:21:18;33.08;;;17.38;;
59008;SDS011;44794;42.652;23.318;2023-03-14T04:23:43;31.98;;;17.08;;
59008;SDS011;44794;42.652;23.318;2023-03-14T04:26:09;29.52;;;16.38;;
59008;SDS011;44794;42.652;23.318;2023-03-14T04:28:35;32.58;;;16.63;;
59008;SDS011;44794;42.652;23.318;2023-03-14T04:31:08;32.75;;;16.55;;
59008;SDS011;44794;42.652;23.318;2023-03-14T04:33:35;30.27;;;16.30;;
59008;SDS011;44794;42.652;23.318;2023-03-14T04:36:02;31.52;;;16.35;;
59008;SDS011;44794;42.652;23.318;2023-03-14T04:38:28;36.17;;;17.33;;
59008;SDS011;44794;42.652;23.318;2023-03-14T04:40:53;33.05;;;17.20;;
59008;SDS011;44794;42.652;23.318;2023-03-14T04:43:19;30.35;;;17.20;;
59008;SDS011;44794;42.652;23.318;2023-03-14T04:45:44;33.53;;;17.23;;
59008;SDS011;44794;42.652;23.318;2023-03-14T04:48:10;35.83;;;18.85;;
59008;SDS011;44794;42.652;23.318;2023-03-14T04:50:35;36.50;;;18.67;;
59008;SDS011;44794;42.652;23.318;2023-03-14T04:53:01;33.95;;;17.10;;
59008;SDS011;44794;42.652;23.318;2023-03-14T04:55:26;40.88;;;19.50;;
59008;SDS011;44794;42.652;23.318;2023-03-14T04:57:52;33.97;;;18.17;;
59008;SDS011;44794;42.652;23.318;2023-03-14T05:00:17;34.50;;;18.48;;
59008;SDS011;44794;42.652;23.318;2023-03-14T05:02:43;39.22;;;18.27;;
59008;SDS011;44794;42.652;23.318;2023-03-14T05:05:09;33.55;;;18.05;;
59008;SDS011;44794;42.652;23.318;2023-03-14T05:07:34;33.28;;;18.45;;
59008;SDS011;44794;42.652;23.318;2023-03-14T05:10:00;36.30;;;19.25;;
59008;SDS011;44794;42.652;23.318;2023-03-14T05:12:25;37.88;;;18.98;;
59008;SDS011;44794;42.652;23.318;2023-03-14T05:14:50;37.42;;;18.45;;
59008;SDS011;44794;42.652;23.318;2023-03-14T05:17:16;37.90;;;18.55;;
59008;SDS011;44794;42.652;23.318;2023-03-14T05:19:42;35.15;;;17.63;;
59008;SDS011;44794;42.652;23.318;2023-03-14T05:22:08;34.10;;;17.70;;
59008;SDS011;44794;42.652;23.318;2023-03-14T05:24:33;32.70;;;18.20;;
59008;SDS011;44794;42.652;23.318;2023-03-14T05:26:59;34.55;;;19.90;;
59008;SDS011;44794;42.652;23.318;2023-03-14T05:29:24;37.45;;;19.50;;
59008;SDS011;44794;42.652;23.318;2023-03-14T05:31:50;34.95;;;18.05;;
59008;SDS011;44794;42.652;23.318;2023-03-14T05:34:15;32.17;;;19.17;;
59008;SDS011;44794;42.652;23.318;2023-03-14T05:36:41;36.40;;;19.23;;
59008;SDS011;44794;42.652;23.318;2023-03-14T05:39:06;33.45;;;17.10;;
59008;SDS011;44794;42.652;23.318;2023-03-14T05:41:31;38.08;;;17.17;;
59008;SDS011;44794;42.652;23.318;2023-03-14T05:43:57;37.53;;;16.08;;
59008;SDS011;44794;42.652;23.318;2023-03-14T05:46:22;29.92;;;15.77;;
59008;SDS011;44794;42.652;23.318;2023-03-14T05:48:48;34.30;;;16.17;;
59008;SDS011;44794;42.652;23.318;2023-03-14T05:51:13;30.38;;;15.88;;
59008;SDS011;44794;42.652;23.318;2023-03-14T05:53:39;30.33;;;16.73;;
59008;SDS011;44794;42.652;23.318;2023-03-14T05:56:04;28.95;;;16.17;;
59008;SDS011;44794;42.652;23.318;2023-03-14T05:58:30;26.90;;;16.60;;
59008;SDS011;44794;42.652;23.318;2023-03-14T06:00:55;38.88;;;17.10;;
59008;SDS011;44794;42.652;23.318;2023-03-14T06:03:20;32.35;;;16.65;;
59008;SDS011;44794;42.652;23.318;2023-03-14T06:05:46;27.55;;;16.17;;
59008;SDS011;44794;42.652;23.318;2023-03-14T06:08:15;27.42;;;16.17;;
59008;SDS011;44794;42.652;23.318;2023-03-14T06:10:40;26.27;;;16.08;;
59008;SDS011;44794;42.652;23.318;2023-03-14T06:13:06;29.30;;;15.75;;
59008;SDS011;44794;42.652;23.318;2023-03-14T06:15:31;28.35;;;16.90;;
59008;SDS011;44794;42.652;23.318;2023-03-14T06:17:58;47.75;;;18.20;;
59008;SDS011;44794;42.652;23.318;2023-03-14T06:20:23;46.95;;;18.35;;
59008;SDS011;44794;42.652;23.318;2023-03-14T06:22:49;50.20;;;18.17;;
59008;SDS011;44794;42.652;23.318;2023-03-14T06:25:14;35.70;;;18.65;;
59008;SDS011;44794;42.652;23.318;2023-03-14T06:27:40;37.65;;;17.67;;
59008;SDS011;44794;42.652;23.318;2023-03-14T06:30:05;42.60;;;18.92;;
59008;SDS011;44794;42.652;23.318;2023-03-14T06:32:31;41.15;;;19.17;;
59008;SDS011;44794;42.652;23.318;2023-03-14T06:34:57;34.80;;;17.42;;
59008;SDS011;44794;42.652;23.318;2023-03-14T06:37:25;26.58;;;15.98;;
59008;SDS011;44794;42.652;23.318;2023-03-14T06:39:54;31.60;;;17.25;;
59008;SDS011;44794;42.652;23.318;2023-03-14T06:42:20;35.63;;;17.48;;
59008;SDS011;44794;42.652;23.318;2023-03-14T06:44:45;32.42;;;16.33;;
59008;SDS011;44794;42.652;23.318;2023-03-14T06:47:11;27.77;;;16.75;;
59008;SDS011;44794;42.652;23.318;2023-03-14T06:49:37;28.75;;;16.48;;
59008;SDS011;44794;42.652;23.318;2023-03-14T06:52:02;29.55;;;15.68;;
59008;SDS011;44794;42.652;23.318;2023-03-14T06:54:28;28.30;;;16.23;;
59008;SDS011;44794;42.652;23.318;2023-03-14T06:56:53;27.25;;;16.20;;
59008;SDS011;44794;42.652;23.318;2023-03-14T06:59:18;30.00;;;16.88;;
59008;SDS011;44794;42.652;23.318;2023-03-14T07:01:44;29.95;;;15.32;;
59008;SDS011;44794;42.652;23.318;2023-03-14T07:04:09;20.77;;;13.10;;
59008;SDS011;44794;42.652;23.318;2023-03-14T07:06:35;24.23;;;14.05;;
59008;SDS011;44794;42.652;23.318;2023-03-14T07:09:01;28.20;;;13.70;;
59008;SDS011;44794;42.652;23.318;2023-03-14T07:11:27;28.70;;;14.50;;
59008;SDS011;44794;42.652;23.318;2023-03-14T07:13:53;29.20;;;14.10;;
59008;SDS011;44794;42.652;23.318;2023-03-14T07:16:19;23.02;;;12.75;;
59008;SDS011;44794;42.652;23.318;2023-03-14T07:18:45;17.63;;;10.57;;
59008;SDS011;44794;42.652;23.318;2023-03-14T07:21:11;18.90;;;9.85;;
59008;SDS011;44794;42.652;23.318;2023-03-14T07:23:37;14.38;;;8.65;;
59008;SDS011;44794;42.652;23.318;2023-03-14T07:26:03;18.60;;;9.43;;
59008;SDS011;44794;42.652;23.318;2023-03-14T07:28:29;13.98;;;9.55;;
59008;SDS011;44794;42.652;23.318;2023-03-14T07:30:55;24.85;;;10.70;;
59008;SDS011;44794;42.652;23.318;2023-03-14T07:33:29;15.77;;;8.88;;
59008;SDS011;44794;42.652;23.318;2023-03-14T07:35:54;18.63;;;9.52;;
59008;SDS011;44794;42.652;23.318;2023-03-14T07:38:20;18.92;;;11.43;;
59008;SDS011;44794;42.652;23.318;2023-03-14T07:40:45;37.78;;;16.42;;
59008;SDS011;44794;42.652;23.318;2023-03-14T07:43:11;21.15;;;10.52;;
59008;SDS011;44794;42.652;23.318;2023-03-14T07:45:36;29.15;;;14.80;;
59008;SDS011;44794;42.652;23.318;2023-03-14T07:48:02;21.58;;;10.95;;
59008;SDS011;44794;42.652;23.318;2023-03-14T07:50:27;20.35;;;10.52;;
59008;SDS011;44794;42.652;23.318;2023-03-14T07:52:53;18.45;;;10.30;;
59008;SDS011;44794;42.652;23.318;2023-03-14T07:55:19;20.45;;;9.93;;
59008;SDS011;44794;42.652;23.318;2023-03-14T07:57:44;17.13;;;10.27;;
59008;SDS011;44794;42.652;23.318;2023-03-14T08:00:10;20.10;;;10.07;;
59008;SDS011;44794;42.652;23.318;2023-03-14T08:02:36;28.50;;;10.30;;
59008;SDS011;44794;42.652;23.318;2023-03-14T08:05:02;19.48;;;10.38;;
59008;SDS011;44794;42.652;23.318;2023-03-14T08:07:28;24.33;;;10.05;;
59008;SDS011;44794;42.652;23.318;2023-03-14T08:09:54;24.00;;;10.65;;
59008;SDS011;44794;42.652;23.318;2023-03-14T08:12:20;21.02;;;9.73;;
59008;SDS011;44794;42.652;23.318;2023-03-14T08:14:45;18.90;;;10.65;;
59008;SDS011;44794;42.652;23.318;2023-03-14T08:17:11;18.77;;;9.90;;
59008;SDS011;44794;42.652;23.318;2023-03-14T08:19:36;29.25;;;11.02;;
59008;SDS011;44794;42.652;23.318;2023-03-14T08:22:02;20.25;;;11.43;;
59008;SDS011;44794;42.652;23.318;2023-03-14T08:24:28;17.38;;;10.30;;
59008;SDS011;44794;42.652;23.318;2023-03-14T08:26:53;22.75;;;11.57;;
59008;SDS011;44794;42.652;23.318;2023-03-14T08:29:18;20.50;;;10.27;;
59008;SDS011;44794;42.652;23.318;2023-03-14T08:31:44;20.77;;;11.15;;
59008;SDS011;44794;42.652;23.318;2023-03-14T08:34:10;15.90;;;9.90;;
59008;SDS011;44794;42.652;23.318;2023-03-14T08:36:35;18.63;;;11.13;;
59008;SDS011;44794;42.652;23.318;2023-03-14T08:39:01;22.27;;;10.90;;
59008;SDS011;44794;42.652;23.318;2023-03-14T08:41:28;19.10;;;10.68;;
59008;SDS011;44794;42.652;23.318;2023-03-14T08:43:54;19.92;;;11.50;;
59008;SDS011;44794;42.652;23.318;2023-03-14T08:46:19;25.55;;;11.55;;
59008;SDS011;44794;42.652;23.318;2023-03-14T08:48:44;22.02;;;12.38;;
59008;SDS011;44794;42.652;23.318;2023-03-14T08:51:11;22.60;;;13.40;;
59008;SDS011;44794;42.652;23.318;2023-03-14T08:53:42;27.88;;;15.57;;
59008;SDS011;44794;42.652;23.318;2023-03-14T08:56:08;33.28;;;15.80;;
59008;SDS011;44794;42.652;23.318;2023-03-14T08:58:35;31.70;;;15.50;;
59008;SDS011;44794;42.652;23.318;2023-03-14T09:01:03;26.63;;;15.45;;
59008;SDS011;44794;42.652;23.318;2023-03-14T09:03:33;26.35;;;15.50;;
59008;SDS011;44794;42.652;23.318;2023-03-14T09:06:03;32.80;;;13.77;;
59008;SDS011;44794;42.652;23.318;2023-03-14T09:08:29;24.60;;;14.20;;
59008;SDS011;44794;42.652;23.318;2023-03-14T09:10:56;23.40;;;13.32;;
59008;SDS011;44794;42.652;23.318;2023-03-14T09:13:21;30.85;;;12.55;;
59008;SDS011;44794;42.652;23.318;2023-03-14T09:15:53;15.57;;;10.75;;
59008;SDS011;44794;42.652;23.318;2023-03-14T09:18:20;16.40;;;10.68;;
59008;SDS011;44794;42.652;23.318;2023-03-14T09:20:45;18.00;;;10.82;;
59008;SDS011;44794;42.652;23.318;2023-03-14T09:23:11;20.77;;;12.30;;
59008;SDS011;44794;42.652;23.318;2023-03-14T09:25:37;26.10;;;12.68;;
59008;SDS011;44794;42.652;23.318;2023-03-14T09:28:03;27.08;;;13.55;;
59008;SDS011;44794;42.652;23.318;2023-03-14T09:30:29;26.77;;;13.55;;
59008;SDS011;44794;42.652;23.318;2023-03-14T09:32:55;21.13;;;11.20;;
59008;SDS011;44794;42.652;23.318;2023-03-14T09:35:22;18.80;;;10.38;;
59008;SDS011;44794;42.652;23.318;2023-03-14T09:37:47;17.35;;;9.75;;
59008;SDS011;44794;42.652;23.318;2023-03-14T09:40:13;14.57;;;9.27;;
59008;SDS011;44794;42.652;23.318;2023-03-14T09:42:44;17.77;;;8.90;;
59008;SDS011;44794;42.652;23.318;2023-03-14T09:45:15;18.33;;;9.48;;
59008;SDS011;44794;42.652;23.318;2023-03-14T09:47:46;18.20;;;10.43;;
59008;SDS011;44794;42.652;23.318;2023-03-14T09:50:15;17.25;;;10.95;;
59008;SDS011;44794;42.652;23.318;2023-03-14T09:52:42;24.90;;;12.10;;
59008;SDS011;44794;42.652;23.318;2023-03-14T10:00:19;17.80;;;10.57;;
59008;SDS011;44794;42.652;23.318;2023-03-14T10:05:36;20.48;;;10.98;;
59008;SDS011;44794;42.652;23.318;2023-03-14T10:08:02;18.48;;;12.30;;
59008;SDS011;44794;42.652;23.318;2023-03-14T10:10:28;23.50;;;12.60;;
59008;SDS011;44794;42.652;23.318;2023-03-14T10:12:57;22.15;;;10.80;;
59008;SDS011;44794;42.652;23.318;2023-03-14T10:15:25;22.08;;;10.75;;
59008;SDS011;44794;42.652;23.318;2023-03-14T10:17:54;18.30;;;11.15;;
59008;SDS011;44794;42.652;23.318;2023-03-14T10:20:30;22.70;;;10.73;;
59008;SDS011;44794;42.652;23.318;2023-03-14T10:23:00;17.00;;;10.27;;
59008;SDS011;44794;42.652;23.318;2023-03-14T10:25:30;20.30;;;10.45;;
59008;SDS011;44794;42.652;23.318;2023-03-14T10:27:57;18.25;;;10.18;;
59008;SDS011;44794;42.652;23.318;2023-03-14T10:30:27;17.15;;;10.77;;
59008;SDS011;44794;42.652;23.318;2023-03-14T10:32:59;18.33;;;10.82;;
59008;SDS011;44794;42.652;23.318;2023-03-14T10:35:33;19.55;;;11.07;;
59008;SDS011;44794;42.652;23.318;2023-03-14T10:38:00;18.02;;;10.60;;
59008;SDS011;44794;42.652;23.318;2023-03-14T10:40:28;18.15;;;10.55;;
59008;SDS011;44794;42.652;23.318;2023-03-14T10:42:59;18.92;;;11.32;;
59008;SDS011;44794;42.652;23.318;2023-03-14T10:45:30;19.73;;;9.57;;
59008;SDS011;44794;42.652;23.318;2023-03-14T10:47:59;19.08;;;10.18;;
59008;SDS011;44794;42.652;23.318;2023-03-14T10:53:38;16.92;;;9.25;;
59008;SDS011;44794;42.652;23.318;2023-03-14T10:56:13;13.88;;;8.88;;
59008;SDS011;44794;42.652;23.318;2023-03-14T10:58:41;15.23;;;8.40;;
59008;SDS011;44794;42.652;23.318;2023-03-14T11:04:03;15.70;;;8.18;;
59008;SDS011;44794;42.652;23.318;2023-03-14T11:09:02;15.05;;;7.35;;
59008;SDS011;44794;42.652;23.318;2023-03-14T11:11:30;12.00;;;6.68;;
59008;SDS011;44794;42.652;23.318;2023-03-14T11:14:02;13.25;;;7.38;;
59008;SDS011;44794;42.652;23.318;2023-03-14T11:21:49;12.90;;;7.25;;
59008;SDS011;44794;42.652;23.318;2023-03-14T11:33:18;12.77;;;5.72;;
59008;SDS011;44794;42.652;23.318;2023-03-14T11:35:46;13.70;;;6.30;;
59008;SDS011;44794;42.652;23.318;2023-03-14T11:38:37;11.93;;;5.30;;
59008;SDS011;44794;42.652;23.318;2023-03-14T11:41:30;6.57;;;4.35;;
59008;SDS011;44794;42.652;23.318;2023-03-14T11:44:02;9.43;;;5.13;;
59008;SDS011;44794;42.652;23.318;2023-03-14T11:46:36;10.85;;;5.57;;
59008;SDS011;44794;42.652;23.318;2023-03-14T11:49:17;10.93;;;4.53;;
59008;SDS011;44794;42.652;23.318;2023-03-14T11:52:22;8.18;;;4.28;;
59008;SDS011;44794;42.652;23.318;2023-03-14T11:55:38;8.48;;;4.65;;
59008;SDS011;44794;42.652;23.318;2023-03-14T11:57:53;10.45;;;4.70;;
59008;SDS011;44794;42.652;23.318;2023-03-14T12:00:23;5.82;;;4.03;;
59008;SDS011;44794;42.652;23.318;2023-03-14T12:03:05;6.47;;;4.43;;
59008;SDS011;44794;42.652;23.318;2023-03-14T12:08:37;6.57;;;4.43;;
59008;SDS011;44794;42.652;23.318;2023-03-14T12:13:48;9.10;;;4.22;;
59008;SDS011;44794;42.652;23.318;2023-03-14T12:18:47;7.32;;;4.15;;
59008;SDS011;44794;42.652;23.318;2023-03-14T12:21:13;5.95;;;3.80;;
59008;SDS011;44794;42.652;23.318;2023-03-14T12:31:38;6.63;;;3.72;;
59008;SDS011;44794;42.652;23.318;2023-03-14T12:47:53;5.85;;;3.63;;
59008;SDS011;44794;42.652;23.318;2023-03-14T12:50:26;14.45;;;4.13;;
59008;SDS011;44794;42.652;23.318;2023-03-14T12:55:56;5.88;;;3.20;;
59008;SDS011;44794;42.652;23.318;2023-03-14T13:01:45;7.50;;;3.40;;
59008;SDS011;44794;42.652;23.318;2023-03-14T13:04:13;6.25;;;3.45;;
59008;SDS011;44794;42.652;23.318;2023-03-14T13:06:49;8.25;;;3.42;;
59008;SDS011;44794;42.652;23.318;2023-03-14T13:14:33;9.23;;;3.10;;
59008;SDS011;44794;42.652;23.318;2023-03-14T13:17:00;8.25;;;2.85;;
59008;SDS011;44794;42.652;23.318;2023-03-14T13:19:27;4.70;;;2.92;;
59008;SDS011;44794;42.652;23.318;2023-03-14T13:22:02;6.75;;;3.35;;
59008;SDS011;44794;42.652;23.318;2023-03-14T13:24:29;4.90;;;2.70;;
59008;SDS011;44794;42.652;23.318;2023-03-14T13:26:59;8.48;;;2.90;;
59008;SDS011;44794;42.652;23.318;2023-03-14T13:29:26;14.70;;;3.30;;
59008;SDS011;44794;42.652;23.318;2023-03-14T13:31:53;8.40;;;3.17;;
59008;SDS011;44794;42.652;23.318;2023-03-14T13:34:31;7.28;;;3.00;;
59008;SDS011;44794;42.652;23.318;2023-03-14T13:36:57;7.50;;;3.08;;
59008;SDS011;44794;42.652;23.318;2023-03-14T13:39:24;8.60;;;2.90;;
59008;SDS011;44794;42.652;23.318;2023-03-14T13:41:53;4.55;;;2.80;;
59008;SDS011;44794;42.652;23.318;2023-03-14T13:44:33;5.60;;;2.70;;
59008;SDS011;44794;42.652;23.318;2023-03-14T13:47:01;20.95;;;4.47;;
59008;SDS011;44794;42.652;23.318;2023-03-14T13:49:28;11.77;;;3.25;;
59008;SDS011;44794;42.652;23.318;2023-03-14T13:51:57;7.88;;;3.17;;
59008;SDS011;44794;42.652;23.318;2023-03-14T13:54:23;9.55;;;2.40;;
59008;SDS011;44794;42.652;23.318;2023-03-14T13:57:01;8.43;;;3.05;;
59008;SDS011;44794;42.652;23.318;2023-03-14T13:59:29;5.38;;;2.80;;
59008;SDS011;44794;42.652;23.318;2023-03-14T14:01:56;6.07;;;2.92;;
59008;SDS011;44794;42.652;23.318;2023-03-14T14:04:25;4.88;;;2.53;;
59008;SDS011;44794;42.652;23.318;2023-03-14T14:06:58;11.15;;;2.80;;
59008;SDS011;44794;42.652;23.318;2023-03-14T14:09:26;11.45;;;2.55;;
59008;SDS011;44794;42.652;23.318;2023-03-14T14:11:55;3.22;;;2.30;;
59008;SDS011;44794;42.652;23.318;2023-03-14T14:14:25;4.13;;;2.90;;
59008;SDS011;44794;42.652;23.318;2023-03-14T14:16:56;3.80;;;2.70;;
59008;SDS011;44794;42.652;23.318;2023-03-14T14:19:23;10.70;;;3.10;;
59008;SDS011;44794;42.652;23.318;2023-03-14T14:21:52;6.13;;;2.90;;
59008;SDS011;44794;42.652;23.318;2023-03-14T14:24:19;7.72;;;2.88;;
59008;SDS011;44794;42.652;23.318;2023-03-14T14:26:52;10.93;;;2.90;;
59008;SDS011;44794;42.652;23.318;2023-03-14T14:29:27;7.07;;;2.65;;
59008;SDS011;44794;42.652;23.318;2023-03-14T14:34:44;6.03;;;2.50;;
59008;SDS011;44794;42.652;23.318;2023-03-14T14:37:22;10.43;;;2.65;;
59008;SDS011;44794;42.652;23.318;2023-03-14T14:39:51;4.03;;;2.30;;
59008;SDS011;44794;42.652;23.318;2023-03-14T14:42:19;6.32;;;2.47;;
59008;SDS011;44794;42.652;23.318;2023-03-14T14:44:50;10.75;;;2.88;;
59008;SDS011;44794;42.652;23.318;2023-03-14T14:47:20;7.70;;;2.45;;
59008;SDS011;44794;42.652;23.318;2023-03-14T14:49:48;10.75;;;2.90;;
59008;SDS011;44794;42.652;23.318;2023-03-14T14:52:19;6.45;;;2.80;;
59008;SDS011;44794;42.652;23.318;2023-03-14T14:54:47;7.07;;;2.50;;
59008;SDS011;44794;42.652;23.318;2023-03-14T14:57:26;11.93;;;2.38;;
59008;SDS011;44794;42.652;23.318;2023-03-14T15:00:08;3.92;;;2.30;;
59008;SDS011;44794;42.652;23.318;2023-03-14T15:02:47;7.68;;;2.10;;
59008;SDS011;44794;42.652;23.318;2023-03-14T15:07:44;3.70;;;2.40;;
59008;SDS011;44794;42.652;23.318;2023-03-14T15:10:11;3.38;;;1.98;;
59008;SDS011;44794;42.652;23.318;2023-03-14T15:12:38;4.22;;;2.20;;
59008;SDS011;44794;42.652;23.318;2023-03-14T15:15:03;6.82;;;2.22;;
59008;SDS011;44794;42.652;23.318;2023-03-14T15:17:29;3.35;;;2.45;;
59008;SDS011;44794;42.652;23.318;2023-03-14T15:19:55;8.27;;;2.30;;
59008;SDS011;44794;42.652;23.318;2023-03-14T15:22:23;4.07;;;2.20;;
59008;SDS011;44794;42.652;23.318;2023-03-14T15:24:48;7.05;;;2.55;;
59008;SDS011;44794;42.652;23.318;2023-03-14T15:27:15;7.90;;;2.45;;
59008;SDS011;44794;42.652;23.318;2023-03-14T15:29:42;4.15;;;2.35;;
59008;SDS011;44794;42.652;23.318;2023-03-14T15:32:12;5.85;;;2.22;;
59008;SDS011;44794;42.652;23.318;2023-03-14T15:34:39;6.45;;;2.38;;
59008;SDS011;44794;42.652;23.318;2023-03-14T15:37:07;6.07;;;2.55;;
59008;SDS011;44794;42.652;23.318;2023-03-14T15:39:37;5.50;;;2.40;;
59008;SDS011;44794;42.652;23.318;2023-03-14T15:42:04;4.07;;;2.50;;
59008;SDS011;44794;42.652;23.318;2023-03-14T15:44:29;3.80;;;2.53;;